To NAV CANADA Home Page Login to a new session Search on AWWS site Disclaimer Vers la page française équivalente Tips FAQ What's new on the site To the Forecasts and Observations / NOTAM section To "File a Flight Plan" website Publications and other links Update of the User's profile FIC Telephone Numbers My Weather Data Folder Route Weather Data Regional Weather Data Local Weather Data To the Forecasts and Observations / NOTAM section
Request Generated 12/17/2018 at 01:35:19 UTC . Weather information available at that time is displayed.

METAR/TAF

If you find any discrepancies between the coded METAR/TAF and the plain language METAR/TAF please use the coded METAR/TAF. LWIS bulletins are not decoded in plain language.

WINNIPEG/JAMES ARMSTRONG RICHARDSON INTL/MB    

METAR CYWG 170100Z 30005KT 15SM FEW240 M11/M15 A3025 RMK CI2 SLP262=
METAR
LOCATION
CYWG - WINNIPEG/JAMES ARMSTRONG RICHARDSON
DATE - TIME
17 DECEMBER 2018 - 0100 UTC
WIND
300 TRUE @ 5  KNOTS
VISIBILITY
15 STAT.  MILES
RUNWAY VISUAL RANGE
WEATHER
CLOUDINESS
FEW CLOUDS (1/8 - 2/8) 24000  FT
TEMP / DEWPOINT
-11 C / -15 C
ALTIMETER
30.25 IN HG
RECENT WEATHER
WIND SHEAR

METAR CYWG 170000Z 34003KT 15SM FEW240 M12/M15 A3023 RMK CI2 SLP257=
METAR
LOCATION
CYWG - WINNIPEG/JAMES ARMSTRONG RICHARDSON
DATE - TIME
17 DECEMBER 2018 - 0000 UTC
WIND
340 TRUE @ 3  KNOTS
VISIBILITY
15 STAT.  MILES
RUNWAY VISUAL RANGE
WEATHER
CLOUDINESS
FEW CLOUDS (1/8 - 2/8) 24000  FT
TEMP / DEWPOINT
-12 C / -15 C
ALTIMETER
30.23 IN HG
RECENT WEATHER
WIND SHEAR

METAR CYWG 162300Z 33011KT 15SM SCT220 M09/M13 A3021 RMK CI4 SLP249=
METAR
LOCATION
CYWG - WINNIPEG/JAMES ARMSTRONG RICHARDSON
DATE - TIME
16 DECEMBER 2018 - 2300 UTC
WIND
330 TRUE @ 11  KNOTS
VISIBILITY
15 STAT.  MILES
RUNWAY VISUAL RANGE
WEATHER
CLOUDINESS
SCATTERED CLOUDS (3/8 - 4/8) 22000  FT
TEMP / DEWPOINT
-9 C / -13 C
ALTIMETER
30.21 IN HG
RECENT WEATHER
WIND SHEAR

TAF CYWG 162338Z 1700/1724 32012KT P6SM FEW160 SCT220 BECMG 1701/1703 30006KT FM170900 19005KT P6SM SCT100 SCT160 BKN250 TEMPO 1709/1718 OVC080 BECMG 1716/1718 17012KT RMK NXT FCST BY 170600Z=
TAF
LOCATION

CYWG - WINNIPEG/JAMES ARMSTRONG RICHARDSON INTL/MB
VALIDITY [UTC]
16 DEC - 2338 to
18 DEC - 0000
 
TIMES
[UTC]
WIND
[DEGREES TRUE]
VISIBILITY
[STAT. MILES]
WEATHER
CLOUDINESS
[FEET AGL]
 
17 DEC - 0000 to
17 DEC - 0900
320 @ 12 KNOTS
6+
NIL
16000 FEW
22000 SCATTERED
BECOMING
17 DEC - 0100 to
17 DEC - 0300
300 @ 6 KNOTS
 
 
 
 
17 DEC - 0900 to
18 DEC - 0000
190 @ 5 KNOTS
6+
NIL
10000 SCATTERED
16000 SCATTERED
25000 BROKEN
TEMPORARY CHANGES
17 DEC - 0900 to
17 DEC - 1800
 
 
 
8000 OVERCAST
BECOMING
17 DEC - 1600 to
17 DEC - 1800
170 @ 12 KNOTS
 
 
 
REMARKS
THE NEXT FORECAST WILL BE ISSUED BY 0600 UTC ON DAY 17


Your time UTC time
Weather data provided by Environment Canada and NAV CANADA